createdAt,value
2023-08-05T00:00:17.858Z,89.00
2023-08-05T00:02:44.482Z,89.66
2023-08-05T00:05:11.036Z,89.38
2023-08-05T00:07:37.607Z,89.65
2023-08-05T00:10:04.476Z,89.55
2023-08-05T00:12:31.089Z,89.69
2023-08-05T00:14:57.617Z,89.55
2023-08-05T00:17:24.392Z,89.44
2023-08-05T00:19:51.681Z,89.32
2023-08-05T00:22:18.348Z,89.82
2023-08-05T00:24:44.886Z,89.86
2023-08-05T00:27:11.444Z,89.60
2023-08-05T00:29:37.993Z,89.62
2023-08-05T00:32:04.889Z,89.26
2023-08-05T00:34:31.484Z,90.27
2023-08-05T00:36:58.049Z,89.48
2023-08-05T00:39:24.579Z,89.26
2023-08-05T00:41:51.081Z,89.82
2023-08-05T00:44:17.642Z,90.21
2023-08-05T00:46:44.196Z,89.77
2023-08-05T00:49:12.161Z,90.42
2023-08-05T00:51:39.961Z,90.66
2023-08-05T00:54:07.272Z,90.03
2023-08-05T00:56:34.399Z,90.62
2023-08-05T00:59:01.211Z,90.45
2023-08-05T01:01:27.975Z,90.90
2023-08-05T01:03:54.805Z,90.65
2023-08-05T01:06:22.549Z,91.05
2023-08-05T01:08:50.300Z,90.97
2023-08-05T01:11:17.435Z,90.54
2023-08-05T01:13:45.232Z,90.59
2023-08-05T01:16:12.124Z,90.84
2023-08-05T01:18:40.749Z,90.61
2023-08-05T01:21:36.237Z,91.13
2023-08-05T01:24:30.440Z,91.24
2023-08-05T01:26:57.990Z,90.36
2023-08-05T01:29:24.841Z,91.35
2023-08-05T01:31:52.767Z,91.01
2023-08-05T01:34:19.492Z,90.78
2023-08-05T01:36:46.235Z,91.12
2023-08-05T01:39:13.004Z,90.96
2023-08-05T01:41:39.777Z,91.46
2023-08-05T01:44:06.524Z,91.21
2023-08-05T01:46:33.304Z,91.63
2023-08-05T01:49:00.069Z,90.83
2023-08-05T01:51:26.850Z,91.08
2023-08-05T01:53:53.777Z,91.31
2023-08-05T01:56:20.575Z,91.29
2023-08-05T01:58:47.301Z,91.53
2023-08-05T02:01:14.111Z,91.33
2023-08-05T02:03:41.109Z,91.45
2023-08-05T02:06:07.905Z,91.68
2023-08-05T02:08:34.627Z,91.79
2023-08-05T02:11:01.445Z,91.39
2023-08-05T02:13:28.192Z,92.25
2023-08-05T02:15:55.036Z,92.43
2023-08-05T02:18:21.800Z,92.20
2023-08-05T02:20:48.496Z,91.78
2023-08-05T02:23:15.197Z,92.32
2023-08-05T02:25:41.933Z,91.99
2023-08-05T02:28:08.663Z,92.76
2023-08-05T02:30:35.461Z,91.40
2023-08-05T02:33:02.271Z,92.63
2023-08-05T02:35:29.074Z,92.11
2023-08-05T02:37:55.818Z,91.77
2023-08-05T02:40:22.585Z,92.09
2023-08-05T02:42:49.308Z,91.92
2023-08-05T02:45:16.065Z,92.11
2023-08-05T02:47:42.818Z,92.00
2023-08-05T02:50:10.866Z,92.39
2023-08-05T02:52:37.682Z,92.02
2023-08-05T02:55:04.838Z,92.41
2023-08-05T02:57:31.598Z,92.11
2023-08-05T02:59:58.282Z,91.27
2023-08-05T03:02:25.058Z,92.07
2023-08-05T03:04:51.829Z,91.83
2023-08-05T03:07:18.558Z,91.79
2023-08-05T03:09:45.368Z,91.83
2023-08-05T03:12:12.160Z,92.64
2023-08-05T03:14:38.878Z,92.00
2023-08-05T03:17:05.733Z,92.34
2023-08-05T03:19:32.530Z,92.58
2023-08-05T03:21:59.141Z,92.13
2023-08-05T03:24:25.665Z,92.30
2023-08-05T03:26:52.433Z,92.04
2023-08-05T03:29:21.316Z,91.83
2023-08-05T03:31:48.084Z,91.83
2023-08-05T03:34:14.692Z,92.37
2023-08-05T03:36:41.219Z,91.70
2023-08-05T03:39:07.876Z,92.26
2023-08-05T03:41:35.409Z,91.63
2023-08-05T03:44:04.812Z,91.75
2023-08-05T03:46:31.332Z,92.51
2023-08-05T03:48:57.860Z,91.92
2023-08-05T03:51:24.489Z,91.57
2023-08-05T03:53:51.078Z,91.66
2023-08-05T03:56:20.295Z,92.38
2023-08-05T03:58:48.037Z,92.14
2023-08-05T04:01:18.166Z,91.31
2023-08-05T04:03:45.268Z,91.89
2023-08-05T04:06:13.137Z,92.24
2023-08-05T04:08:40.590Z,92.39
2023-08-05T04:11:07.215Z,91.90
2023-08-05T04:13:34.358Z,91.95
2023-08-05T04:16:04.718Z,91.78
2023-08-05T04:18:33.100Z,92.06
2023-08-05T04:20:59.695Z,93.03
2023-08-05T04:23:27.774Z,92.74
2023-08-05T04:25:54.377Z,93.29
2023-08-05T04:28:20.889Z,92.47
2023-08-05T04:30:49.593Z,92.61
2023-08-05T04:33:16.113Z,92.55
2023-08-05T04:35:50.271Z,92.61
2023-08-05T04:38:17.483Z,92.52
2023-08-05T04:40:44.062Z,92.66
2023-08-05T04:43:10.719Z,92.92
2023-08-05T04:45:37.370Z,92.92
2023-08-05T04:48:05.445Z,93.19
2023-08-05T04:50:32.086Z,93.47
2023-08-05T04:52:58.625Z,93.42
2023-08-05T04:55:25.204Z,92.96
2023-08-05T04:57:56.073Z,93.04
2023-08-05T05:00:22.816Z,93.13
2023-08-05T05:02:49.962Z,93.49
2023-08-05T05:05:16.633Z,93.22
2023-08-05T05:07:43.161Z,93.37
2023-08-05T05:10:10.076Z,93.59
2023-08-05T05:12:36.802Z,93.40
2023-08-05T05:15:03.686Z,93.95
2023-08-05T05:17:37.454Z,93.14
2023-08-05T05:20:05.746Z,93.42
2023-08-05T05:22:33.701Z,93.03
2023-08-05T05:25:00.733Z,93.94
2023-08-05T05:27:27.533Z,93.36
2023-08-05T05:29:54.294Z,93.84
2023-08-05T05:32:21.146Z,93.77
2023-08-05T05:34:47.991Z,93.68
2023-08-05T05:37:14.755Z,93.30
2023-08-05T05:39:42.182Z,92.97
2023-08-05T05:42:10.161Z,93.55
2023-08-05T05:44:39.272Z,93.72
2023-08-05T05:47:08.423Z,93.95
2023-08-05T05:49:36.081Z,93.40
2023-08-05T05:52:02.689Z,93.85
2023-08-05T05:54:29.240Z,93.55
2023-08-05T05:59:22.881Z,93.43
2023-08-05T06:01:49.478Z,93.13
2023-08-05T06:04:16.140Z,93.30
2023-08-05T06:06:42.705Z,93.34
2023-08-05T06:09:09.231Z,93.24
2023-08-05T06:11:36.016Z,93.08
2023-08-05T06:14:02.611Z,92.95
2023-08-05T06:16:29.229Z,93.02
2023-08-05T06:18:55.827Z,93.07
2023-08-05T06:21:23.888Z,92.73
2023-08-05T06:23:50.706Z,92.75
2023-08-05T06:26:17.338Z,92.54
2023-08-05T06:28:43.991Z,92.05
2023-08-05T06:31:10.562Z,91.93
2023-08-05T06:33:37.120Z,91.70
2023-08-05T06:36:03.865Z,91.69
2023-08-05T06:38:30.495Z,91.54
2023-08-05T06:40:57.032Z,91.35
2023-08-05T06:43:26.378Z,91.50
2023-08-05T06:45:53.635Z,91.27
2023-08-05T06:48:20.312Z,91.06
2023-08-05T06:50:46.896Z,90.89
2023-08-05T06:53:13.476Z,90.06
2023-08-05T06:55:40.036Z,90.43
2023-08-05T06:58:06.661Z,89.87
2023-08-05T07:00:33.298Z,89.82
2023-08-05T07:02:59.950Z,90.17
2023-08-05T07:05:26.745Z,89.87
2023-08-05T07:07:55.757Z,89.69
2023-08-05T07:10:22.827Z,89.47
2023-08-05T07:12:49.369Z,89.70
2023-08-05T07:15:15.935Z,89.48
2023-08-05T07:17:42.872Z,88.52
2023-08-05T07:20:10.043Z,87.71
2023-08-05T07:22:36.615Z,87.75
2023-08-05T07:25:03.815Z,87.31
2023-08-05T07:27:30.377Z,87.81
2023-08-05T07:29:56.874Z,87.62
2023-08-05T07:32:23.637Z,86.35
2023-08-05T07:34:54.787Z,83.83
2023-08-05T07:37:21.437Z,84.11
2023-08-05T07:39:49.416Z,84.44
2023-08-05T07:42:16.474Z,83.62
2023-08-05T07:44:43.717Z,82.53
2023-08-05T07:47:10.641Z,82.73
2023-08-05T07:49:38.401Z,80.47
2023-08-05T07:52:07.638Z,81.13
2023-08-05T07:54:34.826Z,81.08
2023-08-05T07:57:01.547Z,79.04
2023-08-05T07:59:28.785Z,80.62
2023-08-05T08:01:56.477Z,81.11
2023-08-05T08:04:23.460Z,80.75
2023-08-05T08:06:50.526Z,79.83
2023-08-05T08:09:17.262Z,79.50
2023-08-05T08:11:44.183Z,79.36
2023-08-05T08:14:10.960Z,76.28
2023-08-05T08:16:37.757Z,77.71
2023-08-05T08:19:05.744Z,78.03
2023-08-05T08:21:32.672Z,75.85
2023-08-05T08:23:59.489Z,73.58
2023-08-05T08:26:26.399Z,72.76
2023-08-05T08:28:53.262Z,71.26
2023-08-05T08:31:20.052Z,69.14
2023-08-05T08:33:46.786Z,67.28
2023-08-05T08:36:13.547Z,67.60
2023-08-05T08:38:40.495Z,67.66
2023-08-05T08:41:09.280Z,69.25
2023-08-05T08:43:36.128Z,67.77
2023-08-05T08:46:03.594Z,63.91
2023-08-05T08:48:31.086Z,67.05
2023-08-05T08:50:59.664Z,59.22
2023-08-05T08:53:27.321Z,57.87
2023-08-05T08:55:54.509Z,55.71
2023-08-05T08:58:21.417Z,57.79
2023-08-05T09:00:48.528Z,59.15
2023-08-05T09:03:16.235Z,62.90
2023-08-05T09:05:47.047Z,65.47
2023-08-05T09:08:14.249Z,64.16
2023-08-05T09:10:41.053Z,64.65
2023-08-05T09:13:08.567Z,66.35
2023-08-05T09:15:38.311Z,66.50
2023-08-05T09:18:06.818Z,67.02
2023-08-05T09:20:33.798Z,68.38
2023-08-05T09:23:02.852Z,67.82
2023-08-05T09:25:31.863Z,65.93
2023-08-05T09:28:01.215Z,65.38
2023-08-05T09:30:28.450Z,64.51
2023-08-05T09:32:55.518Z,63.40
2023-08-05T09:35:22.724Z,63.40
2023-08-05T09:37:50.876Z,63.33
2023-08-05T09:40:19.376Z,63.35
2023-08-05T09:42:50.073Z,61.38
2023-08-05T09:45:18.651Z,59.41
2023-08-05T09:47:53.859Z,60.43
2023-08-05T09:50:21.711Z,61.87
2023-08-05T09:52:52.664Z,62.77
2023-08-05T09:55:22.459Z,62.68
2023-08-05T09:57:50.053Z,62.09
2023-08-05T10:00:16.975Z,62.94
2023-08-05T10:02:47.944Z,57.60
2023-08-05T10:05:14.943Z,57.38
2023-08-05T10:07:42.714Z,59.28
2023-08-05T10:10:18.375Z,58.28
2023-08-05T10:12:50.355Z,55.54
2023-08-05T10:15:24.133Z,55.43
2023-08-05T10:17:51.080Z,50.48
2023-08-05T10:20:17.999Z,56.33
2023-08-05T10:23:02.744Z,50.96
2023-08-05T10:25:46.630Z,49.17
2023-08-05T10:28:25.394Z,48.50
2023-08-05T10:30:54.903Z,47.98
2023-08-05T10:33:22.124Z,47.70
2023-08-05T10:35:50.609Z,51.86
2023-08-05T10:38:21.017Z,54.94
2023-08-05T10:41:01.796Z,55.50
2023-08-05T10:43:31.514Z,56.59
2023-08-05T10:46:08.276Z,50.72
2023-08-05T10:48:43.301Z,51.58
2023-08-05T10:51:14.013Z,54.63
2023-08-05T10:53:44.196Z,54.87
2023-08-05T10:56:13.119Z,55.74
2023-08-05T10:58:49.036Z,56.73
2023-08-05T11:01:16.574Z,56.55
2023-08-05T11:03:46.375Z,53.77
2023-08-05T11:06:14.809Z,55.36
2023-08-05T11:08:44.421Z,55.02
2023-08-05T11:11:14.550Z,55.89
2023-08-05T11:13:43.705Z,56.27
2023-08-05T11:16:12.285Z,56.84
2023-08-05T11:18:40.814Z,56.27
2023-08-05T11:21:14.164Z,54.89
2023-08-05T11:23:46.514Z,54.26
2023-08-05T11:26:13.544Z,52.03
2023-08-05T11:28:47.480Z,51.20
2023-08-05T11:31:24.948Z,51.41
2023-08-05T11:33:53.327Z,52.75
2023-08-05T11:36:25.578Z,52.33
2023-08-05T11:38:52.651Z,52.63
2023-08-05T11:41:19.370Z,52.41
2023-08-05T11:43:46.217Z,53.39
2023-08-05T11:46:26.772Z,51.38
2023-08-05T11:49:08.457Z,51.70
2023-08-05T11:51:44.891Z,48.99
2023-08-05T11:54:11.644Z,50.67
2023-08-05T11:56:38.377Z,52.09
2023-08-05T11:59:05.077Z,51.50
2023-08-05T12:01:36.647Z,49.48
2023-08-05T12:04:08.502Z,50.02
2023-08-05T12:06:35.170Z,51.17
2023-08-05T12:09:01.884Z,51.96
2023-08-05T12:11:28.620Z,54.47
2023-08-05T12:13:55.324Z,52.49
2023-08-05T12:16:22.090Z,52.96
2023-08-05T12:18:49.323Z,51.90
2023-08-05T12:21:16.201Z,50.46
2023-08-05T12:23:43.170Z,50.18
2023-08-05T12:26:11.292Z,48.28
2023-08-05T12:28:38.278Z,48.89
2023-08-05T12:31:05.601Z,50.05
2023-08-05T12:33:32.385Z,50.48
2023-08-05T12:35:59.130Z,51.53
2023-08-05T12:38:25.881Z,52.53
2023-08-05T12:40:52.558Z,53.75
2023-08-05T12:43:19.233Z,53.92
2023-08-05T12:45:46.080Z,55.03
2023-08-05T12:48:12.862Z,55.72
2023-08-05T12:50:39.556Z,55.45
2023-08-05T12:53:06.442Z,53.55
2023-08-05T12:55:33.038Z,51.34
2023-08-05T12:57:59.603Z,50.92
2023-08-05T13:00:26.219Z,51.22
2023-08-05T13:02:52.802Z,50.61
2023-08-05T13:05:19.427Z,50.99
2023-08-05T13:07:46.320Z,52.28
2023-08-05T13:10:12.977Z,51.67
2023-08-05T13:12:39.491Z,51.89
2023-08-05T13:15:06.543Z,51.71
2023-08-05T13:17:33.106Z,52.66
2023-08-05T13:19:59.662Z,53.89
2023-08-05T13:22:26.155Z,52.99
2023-08-05T13:24:52.763Z,53.21
2023-08-05T13:27:22.326Z,53.46
2023-08-05T13:29:48.851Z,54.45
2023-08-05T13:32:15.521Z,54.25
2023-08-05T13:34:43.221Z,54.78
2023-08-05T13:37:09.741Z,53.07
2023-08-05T13:39:36.376Z,53.01
2023-08-05T13:42:03.372Z,53.03
2023-08-05T13:44:30.056Z,53.07
2023-08-05T13:46:56.647Z,53.85
2023-08-05T13:49:23.328Z,52.85
2023-08-05T13:51:52.182Z,54.10
2023-08-05T13:54:19.252Z,53.67
2023-08-05T13:56:45.771Z,53.75
2023-08-05T13:59:12.300Z,52.92
2023-08-05T14:01:38.778Z,53.04
2023-08-05T14:04:05.300Z,53.91
2023-08-05T14:06:31.823Z,55.72
2023-08-05T14:09:02.029Z,55.01
2023-08-05T14:11:28.651Z,54.74
2023-08-05T14:13:55.247Z,52.74
2023-08-05T14:16:21.760Z,53.16
2023-08-05T14:18:48.315Z,54.18
2023-08-05T14:21:15.907Z,53.67
2023-08-05T14:23:42.420Z,54.56
2023-08-05T14:26:09.063Z,54.59
2023-08-05T14:28:35.630Z,55.05
2023-08-05T14:31:08.492Z,54.66
2023-08-05T14:33:35.062Z,53.86
2023-08-05T14:36:01.606Z,53.36
2023-08-05T14:38:28.167Z,53.45
2023-08-05T14:40:54.719Z,53.75
2023-08-05T14:43:21.278Z,53.95
2023-08-05T14:45:47.817Z,54.16
2023-08-05T14:48:14.441Z,54.25
2023-08-05T14:50:41.109Z,53.96
2023-08-05T14:53:07.885Z,54.51
2023-08-05T14:55:34.651Z,55.03
2023-08-05T14:58:01.570Z,54.81
2023-08-05T15:00:28.392Z,55.40
2023-08-05T15:02:55.616Z,55.30
2023-08-05T15:05:22.843Z,55.13
2023-08-05T15:07:50.074Z,56.10
2023-08-05T15:10:16.891Z,55.90
2023-08-05T15:12:43.688Z,55.93
2023-08-05T15:15:10.663Z,55.83
2023-08-05T15:17:41.694Z,53.66
2023-08-05T15:20:10.401Z,54.96
2023-08-05T15:22:37.256Z,54.61
2023-08-05T15:25:04.567Z,55.49
2023-08-05T15:27:31.109Z,55.35
2023-08-05T15:29:58.715Z,54.93
2023-08-05T15:32:25.744Z,54.95
2023-08-05T15:34:52.480Z,54.95
2023-08-05T15:37:19.033Z,54.79
2023-08-05T15:39:45.562Z,54.70
2023-08-05T15:42:12.107Z,54.80
2023-08-05T15:44:38.675Z,55.20
2023-08-05T15:47:05.653Z,55.05
2023-08-05T15:49:32.284Z,55.53
2023-08-05T15:51:59.118Z,55.03
2023-08-05T15:54:25.819Z,54.92
2023-08-05T15:56:52.489Z,54.45
2023-08-05T15:59:19.092Z,54.94
2023-08-05T16:01:45.688Z,55.18
2023-08-05T16:04:12.455Z,55.53
2023-08-05T16:06:39.217Z,55.71
2023-08-05T16:09:06.926Z,55.92
2023-08-05T16:11:34.239Z,54.59
2023-08-05T16:14:00.877Z,55.04
2023-08-05T16:16:27.481Z,55.68
2023-08-05T16:18:54.054Z,56.10
2023-08-05T16:21:22.594Z,56.19
2023-08-05T16:23:54.400Z,55.54
2023-08-05T16:26:22.740Z,55.78
2023-08-05T16:28:49.898Z,55.27
2023-08-05T16:31:20.758Z,55.82
2023-08-05T16:33:48.018Z,55.04
2023-08-05T16:36:14.986Z,54.37
2023-08-05T16:38:44.739Z,53.49
2023-08-05T16:41:12.143Z,54.58
2023-08-05T16:43:39.895Z,54.90
2023-08-05T16:46:08.039Z,55.67
2023-08-05T16:48:35.603Z,56.13
2023-08-05T16:51:02.192Z,56.22
2023-08-05T16:53:31.956Z,56.37
2023-08-05T16:56:01.776Z,56.93
2023-08-05T16:58:28.394Z,56.19
2023-08-05T17:00:55.991Z,55.95
2023-08-05T17:03:23.069Z,56.19
2023-08-05T17:05:55.707Z,56.37
2023-08-05T17:08:22.383Z,56.47
2023-08-05T17:10:48.971Z,56.72
2023-08-05T17:13:15.643Z,56.65
2023-08-05T17:15:46.175Z,56.80
2023-08-05T17:18:13.828Z,57.11
2023-08-05T17:20:41.510Z,57.38
2023-08-05T17:23:08.697Z,57.44
2023-08-05T17:25:41.174Z,58.16
2023-08-05T17:28:08.505Z,58.21
2023-08-05T17:30:35.658Z,58.42
2023-08-05T17:33:02.883Z,58.48
2023-08-05T17:35:31.203Z,58.72
2023-08-05T17:38:00.706Z,59.09
2023-08-05T17:40:30.181Z,59.51
2023-08-05T17:42:57.199Z,59.71
2023-08-05T17:45:23.976Z,59.94
2023-08-05T17:47:50.863Z,60.35
2023-08-05T17:50:17.745Z,60.56
2023-08-05T17:52:44.503Z,60.61
2023-08-05T17:55:11.254Z,61.07
2023-08-05T17:57:38.223Z,61.40
2023-08-05T18:00:05.824Z,61.94
2023-08-05T18:02:32.633Z,61.99
2023-08-05T18:04:59.389Z,62.39
2023-08-05T18:07:26.106Z,62.34
2023-08-05T18:09:52.851Z,62.42
2023-08-05T18:12:19.601Z,62.68
2023-08-05T18:14:47.983Z,63.22
2023-08-05T18:17:15.201Z,64.22
2023-08-05T18:19:41.980Z,64.58
2023-08-05T18:22:08.674Z,64.24
2023-08-05T18:24:35.405Z,64.13
2023-08-05T18:27:02.180Z,64.20
2023-08-05T18:29:28.976Z,64.58
2023-08-05T18:31:55.686Z,64.42
2023-08-05T18:34:22.617Z,64.43
2023-08-05T18:36:49.188Z,64.45
2023-08-05T18:39:15.696Z,64.47
2023-08-05T18:41:42.245Z,64.86
2023-08-05T18:44:08.752Z,65.31
2023-08-05T18:46:35.291Z,65.29
2023-08-05T18:49:04.083Z,65.31
2023-08-05T18:51:30.607Z,65.31
2023-08-05T18:53:57.174Z,65.52
2023-08-05T18:56:23.706Z,65.85
2023-08-05T18:58:53.585Z,65.73
2023-08-05T19:01:20.867Z,65.92
2023-08-05T19:03:48.357Z,66.12
2023-08-05T19:06:15.174Z,66.27
2023-08-05T19:08:41.746Z,66.36
2023-08-05T19:11:17.080Z,66.57
2023-08-05T19:13:43.955Z,66.60
2023-08-05T19:16:10.771Z,66.81
2023-08-05T19:18:37.394Z,67.46
2023-08-05T19:21:05.845Z,68.04
2023-08-05T19:23:33.438Z,68.94
2023-08-05T19:26:04.309Z,69.08
2023-08-05T19:28:31.061Z,69.13
2023-08-05T19:30:59.632Z,69.06
2023-08-05T19:33:26.270Z,69.29
2023-08-05T19:35:52.771Z,69.31
2023-08-05T19:38:19.338Z,68.81
2023-08-05T19:40:45.929Z,69.16
2023-08-05T19:43:12.468Z,69.04
2023-08-05T19:45:39.036Z,69.36
2023-08-05T19:48:05.778Z,69.76
2023-08-05T19:50:32.330Z,69.57
2023-08-05T19:52:58.885Z,69.89
2023-08-05T19:55:28.289Z,70.03
2023-08-05T19:57:54.992Z,70.28
2023-08-05T20:00:21.518Z,70.05
2023-08-05T20:02:48.121Z,70.35
2023-08-05T20:05:14.749Z,70.07
2023-08-05T20:07:41.382Z,70.48
2023-08-05T20:10:08.877Z,71.31
2023-08-05T20:12:35.494Z,71.88
2023-08-05T20:15:02.199Z,71.89
2023-08-05T20:17:28.791Z,71.63
2023-08-05T20:19:55.386Z,71.93
2023-08-05T20:22:21.945Z,73.18
2023-08-05T20:24:48.455Z,74.40
2023-08-05T20:27:15.004Z,75.34
2023-08-05T20:29:41.758Z,77.68
2023-08-05T20:32:08.544Z,76.96
2023-08-05T20:34:35.333Z,76.44
2023-08-05T20:37:02.091Z,76.38
2023-08-05T20:39:28.795Z,76.23
2023-08-05T20:41:55.512Z,75.92
2023-08-05T20:44:22.276Z,76.09
2023-08-05T20:46:49.015Z,76.20
2023-08-05T20:49:15.750Z,76.35
2023-08-05T20:51:42.958Z,76.15
2023-08-05T20:54:10.586Z,76.25
2023-08-05T20:56:37.358Z,76.48
2023-08-05T20:59:04.217Z,76.31
2023-08-05T21:01:30.994Z,76.23
2023-08-05T21:03:57.883Z,76.63
2023-08-05T21:06:24.731Z,76.25
2023-08-05T21:08:51.569Z,76.64
2023-08-05T21:11:18.314Z,77.20
2023-08-05T21:13:46.809Z,76.86
2023-08-05T21:16:13.354Z,77.21
2023-08-05T21:18:39.948Z,77.38
2023-08-05T21:21:06.532Z,77.95
2023-08-05T21:23:33.321Z,77.84
2023-08-05T21:25:59.872Z,78.12
2023-08-05T21:28:26.485Z,78.41
2023-08-05T21:30:58.411Z,78.95
2023-08-05T21:33:25.479Z,79.75
2023-08-05T21:35:52.310Z,79.65
2023-08-05T21:38:18.980Z,80.03
2023-08-05T21:40:47.007Z,80.95
2023-08-05T21:43:17.202Z,80.84
2023-08-05T21:45:47.481Z,81.11
2023-08-05T21:48:14.722Z,81.09
2023-08-05T21:50:41.834Z,81.69
2023-08-05T21:53:09.148Z,81.81
2023-08-05T21:55:36.496Z,81.88
2023-08-05T21:58:04.219Z,82.25
2023-08-05T22:00:31.084Z,82.67
2023-08-05T22:02:57.941Z,82.54
2023-08-05T22:05:24.916Z,82.85
2023-08-05T22:07:51.439Z,83.20
2023-08-05T22:10:18.103Z,83.45
2023-08-05T22:12:44.713Z,83.50
2023-08-05T22:15:11.671Z,83.56
2023-08-05T22:17:38.366Z,83.68
2023-08-05T22:20:05.497Z,84.21
2023-08-05T22:22:32.009Z,84.73
2023-08-05T22:24:58.584Z,85.04
2023-08-05T22:27:25.174Z,85.51
2023-08-05T22:29:51.848Z,85.52
2023-08-05T22:32:18.619Z,85.82
2023-08-05T22:34:45.264Z,85.79
2023-08-05T22:37:11.911Z,85.96
2023-08-05T22:39:38.949Z,86.23
2023-08-05T22:42:06.422Z,86.16
2023-08-05T22:44:33.682Z,86.41
2023-08-05T22:47:00.350Z,86.66
2023-08-05T22:49:27.104Z,86.64
2023-08-05T22:51:53.969Z,86.99
2023-08-05T22:54:20.771Z,87.12
2023-08-05T22:56:47.365Z,87.33
2023-08-05T22:59:14.328Z,87.28
2023-08-05T23:01:41.012Z,87.11
2023-08-05T23:04:08.214Z,87.12
2023-08-05T23:06:34.993Z,87.24
2023-08-05T23:09:01.872Z,87.63
2023-08-05T23:11:28.492Z,87.76
2023-08-05T23:13:55.248Z,87.75
2023-08-05T23:16:22.044Z,87.81
2023-08-05T23:18:49.689Z,87.73
2023-08-05T23:21:17.540Z,88.14
2023-08-05T23:23:44.443Z,88.29
2023-08-05T23:26:11.306Z,88.18
2023-08-05T23:28:38.305Z,88.66
2023-08-05T23:31:06.065Z,88.60
2023-08-05T23:33:33.037Z,88.45
2023-08-05T23:36:00.110Z,89.34
2023-08-05T23:38:27.415Z,90.29
2023-08-05T23:40:54.220Z,90.79
2023-08-05T23:43:21.040Z,91.48
2023-08-05T23:45:48.991Z,91.17
2023-08-05T23:48:16.649Z,91.19
2023-08-05T23:50:43.730Z,91.38
2023-08-05T23:53:10.781Z,91.37
2023-08-05T23:55:37.560Z,91.49
2023-08-05T23:58:04.622Z,91.16
